createdAt,value
2022-12-23T00:01:38.567Z,98889.38
2022-12-23T00:05:40.648Z,98896.25
2022-12-23T00:09:42.394Z,98886.00
2022-12-23T00:14:03.267Z,98880.00
2022-12-23T00:18:05.083Z,98873.22
2022-12-23T00:22:06.913Z,98857.91
2022-12-23T00:26:16.807Z,98838.69
2022-12-23T00:30:18.626Z,98850.13
2022-12-23T00:34:20.378Z,98836.44
2022-12-23T00:38:40.895Z,98829.09
2022-12-23T00:42:54.345Z,98823.34
2022-12-23T00:46:56.099Z,98830.44
2022-12-23T00:50:57.909Z,98815.25
2022-12-23T00:54:59.646Z,98812.28
2022-12-23T00:59:01.368Z,98814.88
2022-12-23T01:03:21.751Z,98825.81
2022-12-23T01:07:23.969Z,98821.59
2022-12-23T01:11:25.891Z,98816.59
2022-12-23T01:15:27.671Z,98801.03
2022-12-23T01:19:29.459Z,98807.53
2022-12-23T01:23:31.242Z,98793.41
2022-12-23T01:27:32.972Z,98788.41
2022-12-23T01:31:34.970Z,98787.56
2022-12-23T01:35:36.785Z,98778.41
2022-12-23T01:39:38.563Z,98777.16
2022-12-23T01:43:51.037Z,98782.78
2022-12-23T01:47:58.152Z,98783.91
2022-12-23T01:51:59.845Z,98779.38
2022-12-23T01:56:19.042Z,98779.94
2022-12-23T02:00:39.875Z,98765.44
2022-12-23T02:04:41.588Z,98763.84
2022-12-23T02:09:02.336Z,98763.84
2022-12-23T02:13:15.024Z,98766.88
2022-12-23T02:17:39.674Z,98774.66
2022-12-23T02:22:06.937Z,98777.41
2022-12-23T02:26:46.559Z,98767.56
2022-12-23T02:31:11.940Z,98772.31
2022-12-23T02:35:18.279Z,98765.84
2022-12-23T02:39:31.046Z,98759.34
2022-12-23T02:43:45.150Z,98744.28
2022-12-23T02:47:59.867Z,98750.28
2022-12-23T02:52:08.757Z,98751.94
2022-12-23T02:56:10.564Z,98757.81
2022-12-23T03:00:13.213Z,98758.09
2022-12-23T03:04:21.111Z,98739.97
2022-12-23T03:08:35.211Z,98740.28
2022-12-23T03:13:04.137Z,98740.09
2022-12-23T03:17:48.093Z,98725.69
2022-12-23T03:22:55.133Z,98735.00
2022-12-23T03:27:19.532Z,98719.16
2022-12-23T03:31:25.629Z,98719.13
2022-12-23T03:35:33.221Z,98717.84
2022-12-23T03:39:39.741Z,98723.66
2022-12-23T03:43:50.656Z,98709.63
2022-12-23T03:47:56.521Z,98712.38
2022-12-23T03:52:04.377Z,98714.19
2022-12-23T03:56:26.448Z,98728.34
2022-12-23T04:00:28.985Z,98731.16
2022-12-23T04:04:57.126Z,98727.88
2022-12-23T04:08:58.872Z,98723.16
2022-12-23T04:13:00.681Z,98719.72
2022-12-23T04:17:02.587Z,98716.09
2022-12-23T04:21:04.603Z,98711.25
2022-12-23T04:25:07.096Z,98714.69
2022-12-23T04:29:08.872Z,98727.78
2022-12-23T04:33:11.908Z,98727.47
2022-12-23T04:37:13.713Z,98718.81
2022-12-23T04:41:15.545Z,98728.44
2022-12-23T04:45:17.439Z,98714.09
2022-12-23T04:49:19.158Z,98717.34
2022-12-23T04:53:20.959Z,98706.88
2022-12-23T04:57:22.916Z,98725.13
2022-12-23T05:01:24.823Z,98710.16
2022-12-23T05:05:26.709Z,98730.50
2022-12-23T05:09:28.665Z,98724.00
2022-12-23T05:13:30.471Z,98725.13
2022-12-23T05:17:32.221Z,98709.19
2022-12-23T05:21:34.111Z,98707.19
2022-12-23T05:25:39.452Z,98729.22
2022-12-23T05:29:41.414Z,98717.69
2022-12-23T05:33:43.467Z,98726.97
2022-12-23T05:37:45.269Z,98714.75
2022-12-23T05:41:47.054Z,98726.47
2022-12-23T05:45:49.806Z,98732.31
2022-12-23T05:49:51.694Z,98724.38
2022-12-23T05:53:53.468Z,98742.59
2022-12-23T05:57:55.395Z,98751.66
2022-12-23T06:02:04.016Z,98738.81
2022-12-23T06:06:14.294Z,98743.19
2022-12-23T06:10:16.350Z,98740.47
2022-12-23T06:14:21.412Z,98745.97
2022-12-23T06:18:28.096Z,98751.47
2022-12-23T06:22:31.218Z,98763.34
2022-12-23T06:26:36.159Z,98752.72
2022-12-23T06:30:40.518Z,98763.25
2022-12-23T06:34:42.393Z,98783.75
2022-12-23T06:38:47.191Z,98773.75
2022-12-23T06:42:52.112Z,98786.94
2022-12-23T06:46:56.948Z,98790.34
2022-12-23T06:51:04.106Z,98787.28
2022-12-23T06:55:09.404Z,98795.91
2022-12-23T06:59:11.161Z,98798.56
2022-12-23T07:03:13.183Z,98797.78
2022-12-23T07:07:15.074Z,98809.16
2022-12-23T07:11:16.839Z,98793.69
2022-12-23T07:15:18.738Z,98795.31
2022-12-23T07:19:20.550Z,98808.22
2022-12-23T07:23:22.361Z,98806.56
2022-12-23T07:27:24.266Z,98808.56
2022-12-23T07:31:26.237Z,98825.66
2022-12-23T07:35:35.737Z,98810.66
2022-12-23T07:39:38.713Z,98818.69
2022-12-23T07:43:40.839Z,98831.56
2022-12-23T07:47:43.179Z,98834.81
2022-12-23T07:51:44.919Z,98833.66
2022-12-23T07:55:56.175Z,98834.09
2022-12-23T07:59:58.358Z,98825.28
2022-12-23T08:04:00.210Z,98845.19
2022-12-23T08:08:02.083Z,98844.56
2022-12-23T08:12:04.130Z,98848.44
2022-12-23T08:16:08.752Z,98825.88
2022-12-23T08:20:11.183Z,98840.41
2022-12-23T08:24:13.116Z,98831.50
2022-12-23T08:28:14.913Z,98829.88
2022-12-23T08:32:16.664Z,98828.38
2022-12-23T08:36:24.573Z,98839.06
2022-12-23T08:40:26.371Z,98837.88
2022-12-23T08:44:28.302Z,98844.38
2022-12-23T08:48:30.063Z,98847.44
2022-12-23T08:52:33.935Z,98851.81
2022-12-23T08:56:39.286Z,98869.03
2022-12-23T09:00:41.331Z,98853.06
2022-12-23T09:04:43.141Z,98847.66
2022-12-23T09:08:45.255Z,98857.06
2022-12-23T09:12:47.088Z,98858.13
2022-12-23T09:16:51.840Z,98851.97
2022-12-23T09:21:01.801Z,98857.56
2022-12-23T09:25:05.427Z,98861.28
2022-12-23T09:29:07.398Z,98856.50
2022-12-23T09:33:09.210Z,98847.59
2022-12-23T09:37:13.625Z,98861.66
2022-12-23T09:41:37.000Z,98861.66
2022-12-23T09:45:52.990Z,98867.00
2022-12-23T09:50:01.107Z,98876.47
2022-12-23T09:54:23.891Z,98864.44
2022-12-23T09:58:47.089Z,98869.69
2022-12-23T10:03:28.415Z,98869.84
2022-12-23T10:07:49.525Z,98863.75
2022-12-23T10:11:53.399Z,98878.53
2022-12-23T10:15:58.004Z,98873.78
2022-12-23T10:20:02.813Z,98884.75
2022-12-23T10:24:13.073Z,98879.91
2022-12-23T10:28:14.827Z,98883.41
2022-12-23T10:32:34.458Z,98891.25
2022-12-23T10:37:02.437Z,98880.38
2022-12-23T10:41:39.271Z,98887.59
2022-12-23T10:46:21.501Z,98878.56
2022-12-23T10:50:46.318Z,98865.19
2022-12-23T10:54:50.584Z,98854.63
2022-12-23T10:58:58.353Z,98852.56
2022-12-23T11:03:13.032Z,98859.59
2022-12-23T11:07:44.015Z,98860.72
2022-12-23T11:12:03.381Z,98861.25
2022-12-23T11:16:22.489Z,98872.16
2022-12-23T11:20:24.489Z,98869.75
2022-12-23T11:24:35.356Z,98868.28
2022-12-23T11:28:53.302Z,98862.25
2022-12-23T11:33:32.288Z,98879.03
2022-12-23T11:37:42.157Z,98862.88
2022-12-23T11:41:48.105Z,98871.44
2022-12-23T11:46:24.439Z,98870.88
2022-12-23T11:50:28.882Z,98881.53
2022-12-23T11:54:34.054Z,98882.63
2022-12-23T11:58:48.557Z,98886.50
2022-12-23T12:02:55.452Z,98895.47
2022-12-23T12:06:57.521Z,98889.22
2022-12-23T12:11:08.287Z,98894.19
2022-12-23T12:15:41.147Z,98892.19
2022-12-23T12:19:56.640Z,98879.06
2022-12-23T12:24:38.215Z,98878.72
2022-12-23T12:28:49.329Z,98870.88
2022-12-23T12:33:00.871Z,98873.19
2022-12-23T12:37:42.311Z,98870.38
2022-12-23T12:41:58.433Z,98868.31
2022-12-23T12:46:18.420Z,98876.00
2022-12-23T12:50:29.364Z,98869.50
2022-12-23T12:54:46.041Z,98871.41
2022-12-23T12:58:48.806Z,98875.13
2022-12-23T13:03:22.658Z,98865.47
2022-12-23T13:07:55.793Z,98870.16
2022-12-23T13:12:08.521Z,98863.66
2022-12-23T13:16:50.466Z,98871.34
2022-12-23T13:21:16.168Z,98861.75
2022-12-23T13:25:26.917Z,98861.81
2022-12-23T13:30:00.706Z,98859.22
2022-12-23T13:35:13.285Z,98868.41
2022-12-23T13:39:36.841Z,98863.06
2022-12-23T13:43:57.625Z,98852.41
2022-12-23T13:48:38.317Z,98863.16
2022-12-23T13:53:20.796Z,98869.47
2022-12-23T13:58:02.397Z,98864.69
2022-12-23T14:02:36.144Z,98848.44
2022-12-23T14:06:39.301Z,98842.72
2022-12-23T14:10:41.104Z,98843.75
2022-12-23T14:15:22.468Z,98839.59
2022-12-23T14:19:54.979Z,98831.09
2022-12-23T14:24:47.678Z,98831.28
2022-12-23T14:29:06.201Z,98847.78
2022-12-23T14:33:36.117Z,98836.78
2022-12-23T14:37:40.979Z,98840.38
2022-12-23T14:41:53.117Z,98831.53
2022-12-23T14:46:21.446Z,98841.03
2022-12-23T14:50:38.040Z,98826.13
2022-12-23T14:54:46.477Z,98805.38
2022-12-23T14:59:46.812Z,98837.16
2022-12-23T15:03:54.564Z,98822.16
2022-12-23T15:08:01.037Z,98821.53
2022-12-23T15:12:11.667Z,98824.47
2022-12-23T15:16:17.053Z,98832.63
2022-12-23T15:20:26.544Z,98835.03
2022-12-23T15:24:28.632Z,98837.31
2022-12-23T15:28:37.854Z,98844.81
2022-12-23T15:32:45.561Z,98847.13
2022-12-23T15:36:48.209Z,98844.78
2022-12-23T15:41:13.677Z,98816.91
2022-12-23T15:45:36.376Z,98820.06
2022-12-23T15:49:41.396Z,98827.19
2022-12-23T15:53:57.961Z,98815.81
2022-12-23T15:58:02.173Z,98804.81
2022-12-23T16:06:56.469Z,98824.47
2022-12-23T16:11:05.875Z,98820.94
2022-12-23T16:15:22.319Z,98817.75
2022-12-23T16:19:43.827Z,98814.81
2022-12-23T16:23:50.722Z,98815.47
2022-12-23T16:27:58.971Z,98816.25
2022-12-23T16:32:02.231Z,98818.75
2022-12-23T16:36:34.071Z,98816.94
2022-12-23T16:40:37.869Z,98802.31
2022-12-23T16:44:39.976Z,98797.09
2022-12-23T16:48:45.320Z,98802.50
2022-12-23T16:52:48.444Z,98792.13
2022-12-23T16:56:54.021Z,98794.88
2022-12-23T17:00:55.960Z,98794.53
2022-12-23T17:04:57.905Z,98789.56
2022-12-23T17:08:59.715Z,98797.09
2022-12-23T17:13:01.629Z,98775.16
2022-12-23T17:17:10.613Z,98772.91
2022-12-23T17:21:21.023Z,98755.66
2022-12-23T17:25:26.217Z,98761.34
2022-12-23T17:29:28.798Z,98755.50
2022-12-23T17:33:31.713Z,98738.63
2022-12-23T17:37:40.513Z,98730.84
2022-12-23T17:41:42.391Z,98733.31
2022-12-23T17:45:44.600Z,98724.72
2022-12-23T17:49:46.851Z,98720.47
2022-12-23T17:53:57.404Z,98723.03
2022-12-23T17:58:00.169Z,98723.44
2022-12-23T18:02:04.860Z,98710.97
2022-12-23T18:06:16.447Z,98709.66
2022-12-23T18:10:23.342Z,98700.28
2022-12-23T18:14:29.312Z,98730.03
2022-12-23T18:18:41.777Z,98732.22
2022-12-23T18:22:48.972Z,98728.34
2022-12-23T18:26:51.000Z,98731.28
2022-12-23T18:30:54.965Z,98734.88
2022-12-23T18:34:58.087Z,98733.91
2022-12-23T18:39:00.175Z,98728.97
2022-12-23T18:43:16.085Z,98735.56
2022-12-23T18:47:17.994Z,98728.59
2022-12-23T18:51:23.946Z,98730.25
2022-12-23T18:55:26.207Z,98735.31
2022-12-23T18:59:30.244Z,98741.66
2022-12-23T19:03:32.477Z,98746.72
2022-12-23T19:07:34.601Z,98738.56
2022-12-23T19:11:36.432Z,98739.69
2022-12-23T19:15:38.439Z,98728.03
2022-12-23T19:19:40.198Z,98724.28
2022-12-23T19:23:42.382Z,98703.03
2022-12-23T19:27:44.381Z,98709.16
2022-12-23T19:31:46.415Z,98703.97
2022-12-23T19:35:49.334Z,98690.75
2022-12-23T19:39:52.067Z,98676.41
2022-12-23T19:43:56.427Z,98671.97
2022-12-23T19:47:58.275Z,98671.31
2022-12-23T19:52:03.133Z,98651.59
2022-12-23T19:56:08.301Z,98651.16
2022-12-23T20:00:10.942Z,98644.47
2022-12-23T20:04:13.240Z,98625.91
2022-12-23T20:08:23.272Z,98617.78
2022-12-23T20:12:26.450Z,98609.50
2022-12-23T20:16:29.172Z,98600.50
2022-12-23T20:20:31.069Z,98601.81
2022-12-23T20:24:46.155Z,98597.25
2022-12-23T20:28:48.087Z,98591.84
2022-12-23T20:32:53.172Z,98583.69
2022-12-23T20:36:55.096Z,98590.19
2022-12-23T20:40:56.933Z,98578.75
2022-12-23T20:44:59.237Z,98581.16
2022-12-23T20:49:06.715Z,98575.25
2022-12-23T20:53:10.621Z,98579.38
2022-12-23T20:57:12.765Z,98574.22
2022-12-23T21:01:14.766Z,98571.56
2022-12-23T21:05:24.689Z,98586.66
2022-12-23T21:09:29.765Z,98588.50
2022-12-23T21:13:31.664Z,98585.34
2022-12-23T21:17:34.740Z,98586.66
2022-12-23T21:21:39.030Z,98561.22
2022-12-23T21:25:43.353Z,98561.72
2022-12-23T21:29:47.991Z,98554.94
2022-12-23T21:33:50.683Z,98551.19
2022-12-23T21:38:00.076Z,98548.22
2022-12-23T21:42:02.099Z,98551.44
2022-12-23T21:46:12.491Z,98543.22
2022-12-23T21:50:14.558Z,98538.19
2022-12-23T21:54:16.427Z,98537.34
2022-12-23T21:58:18.291Z,98541.19
2022-12-23T22:02:20.158Z,98544.56
2022-12-23T22:06:27.929Z,98527.38
2022-12-23T22:10:29.719Z,98543.03
2022-12-23T22:14:31.530Z,98542.00
2022-12-23T22:18:33.377Z,98544.63
2022-12-23T22:22:35.337Z,98545.75
2022-12-23T22:26:37.172Z,98551.44
2022-12-23T22:30:38.887Z,98552.81
2022-12-23T22:34:40.684Z,98562.41
2022-12-23T22:38:42.695Z,98577.91
2022-12-23T22:42:44.452Z,98588.41
2022-12-23T22:46:46.270Z,98591.38
2022-12-23T22:50:48.182Z,98612.53
2022-12-23T22:54:50.360Z,98597.56
2022-12-23T22:58:52.556Z,98605.69
2022-12-23T23:02:54.358Z,98624.00
2022-12-23T23:06:56.163Z,98638.41
2022-12-23T23:10:59.010Z,98636.13
2022-12-23T23:15:00.796Z,98643.09
2022-12-23T23:19:03.384Z,98609.56
2022-12-23T23:23:06.647Z,98629.41
2022-12-23T23:27:09.014Z,98627.34
2022-12-23T23:35:32.738Z,98648.38
2022-12-23T23:39:34.522Z,98623.50
2022-12-23T23:43:36.247Z,98622.13
2022-12-23T23:47:38.049Z,98629.97
2022-12-23T23:51:39.904Z,98639.34
2022-12-23T23:55:41.853Z,98616.72
2022-12-23T23:59:43.609Z,98618.88
